createdAt,value
2023-04-17T00:00:37.813Z,17.32
2023-04-17T00:03:05.027Z,17.32
2023-04-17T00:05:32.378Z,17.50
2023-04-17T00:07:59.563Z,17.40
2023-04-17T00:10:26.323Z,17.39
2023-04-17T00:12:53.167Z,17.46
2023-04-17T00:15:21.828Z,17.53
2023-04-17T00:17:48.907Z,17.43
2023-04-17T00:20:16.007Z,17.52
2023-04-17T00:22:42.912Z,17.59
2023-04-17T00:25:11.127Z,17.65
2023-04-17T00:27:38.005Z,17.53
2023-04-17T00:30:06.621Z,17.50
2023-04-17T00:32:34.982Z,17.60
2023-04-17T00:35:02.672Z,17.60
2023-04-17T00:37:29.642Z,17.62
2023-04-17T00:39:56.442Z,17.57
2023-04-17T00:42:23.307Z,17.67
2023-04-17T00:44:50.290Z,17.67
2023-04-17T00:47:17.809Z,17.60
2023-04-17T00:49:46.277Z,17.66
2023-04-17T00:52:18.451Z,17.67
2023-04-17T00:54:45.656Z,17.67
2023-04-17T00:57:12.586Z,17.66
2023-04-17T00:59:39.973Z,17.69
2023-04-17T01:02:06.822Z,17.62
2023-04-17T01:04:33.669Z,17.53
2023-04-17T01:07:02.475Z,17.58
2023-04-17T01:09:29.180Z,17.65
2023-04-17T01:12:15.395Z,17.75
2023-04-17T01:14:42.108Z,17.78
2023-04-17T01:17:08.836Z,17.66
2023-04-17T01:19:35.691Z,17.68
2023-04-17T01:22:03.817Z,17.82
2023-04-17T01:24:32.006Z,17.82
2023-04-17T01:26:58.674Z,17.80
2023-04-17T01:29:25.460Z,17.81
2023-04-17T01:31:52.159Z,17.74
2023-04-17T01:34:18.845Z,17.72
2023-04-17T01:36:45.666Z,17.80
2023-04-17T01:39:12.612Z,17.80
2023-04-17T01:41:40.833Z,17.81
2023-04-17T01:44:07.546Z,17.85
2023-04-17T01:46:34.264Z,17.76
2023-04-17T01:49:00.925Z,17.80
2023-04-17T01:51:27.650Z,17.75
2023-04-17T01:53:54.934Z,17.84
2023-04-17T01:56:21.671Z,17.90
2023-04-17T01:58:49.719Z,17.90
2023-04-17T02:01:16.566Z,17.84
2023-04-17T02:03:43.586Z,17.87
2023-04-17T02:06:10.472Z,17.93
2023-04-17T02:08:37.415Z,17.91
2023-04-17T02:11:04.245Z,17.97
2023-04-17T02:13:31.051Z,17.99
2023-04-17T02:15:59.216Z,17.99
2023-04-17T02:18:25.964Z,17.99
2023-04-17T02:20:52.711Z,18.11
2023-04-17T02:23:19.503Z,18.19
2023-04-17T02:25:46.193Z,18.20
2023-04-17T02:28:12.932Z,18.18
2023-04-17T02:30:39.610Z,18.25
2023-04-17T02:33:07.764Z,18.31
2023-04-17T02:35:34.602Z,18.33
2023-04-17T02:38:01.284Z,18.34
2023-04-17T02:40:28.075Z,18.35
2023-04-17T02:42:54.810Z,18.44
2023-04-17T02:45:21.748Z,18.39
2023-04-17T02:47:48.520Z,18.37
2023-04-17T02:50:16.765Z,18.41
2023-04-17T02:52:43.524Z,18.32
2023-04-17T02:55:10.331Z,18.29
2023-04-17T02:57:37.083Z,18.33
2023-04-17T03:00:04.474Z,18.41
2023-04-17T03:02:31.210Z,18.40
2023-04-17T03:04:58.146Z,18.38
2023-04-17T03:07:26.697Z,18.36
2023-04-17T03:09:53.626Z,18.37
2023-04-17T03:12:20.363Z,18.32
2023-04-17T03:14:49.394Z,18.34
2023-04-17T03:17:16.384Z,18.34
2023-04-17T03:19:43.153Z,18.27
2023-04-17T03:22:11.391Z,18.29
2023-04-17T03:24:41.398Z,18.31
2023-04-17T03:27:08.131Z,18.46
2023-04-17T03:29:35.018Z,18.41
2023-04-17T03:32:01.743Z,18.37
2023-04-17T03:34:28.516Z,18.42
2023-04-17T03:36:55.303Z,18.44
2023-04-17T03:39:22.064Z,18.39
2023-04-17T03:41:50.215Z,18.39
2023-04-17T03:44:16.969Z,18.30
2023-04-17T03:46:43.703Z,18.28
2023-04-17T03:49:10.672Z,18.29
2023-04-17T03:51:37.557Z,18.23
2023-04-17T03:54:04.240Z,18.28
2023-04-17T03:56:31.111Z,18.29
2023-04-17T03:58:59.272Z,18.33
2023-04-17T04:01:26.131Z,18.22
2023-04-17T04:03:53.034Z,18.25
2023-04-17T04:06:19.819Z,18.44
2023-04-17T04:08:46.666Z,18.38
2023-04-17T04:11:13.425Z,18.27
2023-04-17T04:13:40.109Z,18.40
2023-04-17T04:16:08.966Z,18.44
2023-04-17T04:18:36.136Z,18.36
2023-04-17T04:21:02.922Z,18.57
2023-04-17T04:23:29.611Z,18.73
2023-04-17T04:25:56.424Z,18.50
2023-04-17T04:28:23.084Z,18.28
2023-04-17T04:30:49.933Z,17.86
2023-04-17T04:33:18.548Z,17.78
2023-04-17T04:35:45.260Z,18.16
2023-04-17T04:38:11.936Z,18.31
2023-04-17T04:40:38.665Z,18.22
2023-04-17T04:43:05.500Z,18.14
2023-04-17T04:45:32.200Z,18.20
2023-04-17T04:47:59.912Z,18.18
2023-04-17T04:50:28.005Z,17.87
2023-04-17T04:52:54.777Z,17.83
2023-04-17T04:55:21.698Z,17.85
2023-04-17T04:57:48.411Z,17.76
2023-04-17T05:00:15.825Z,17.74
2023-04-17T05:02:42.700Z,17.87
2023-04-17T05:05:09.918Z,17.87
2023-04-17T05:07:38.080Z,17.84
2023-04-17T05:10:05.739Z,17.82
2023-04-17T05:12:32.475Z,17.84
2023-04-17T05:14:59.257Z,17.95
2023-04-17T05:17:26.039Z,17.94
2023-04-17T05:19:52.870Z,17.95
2023-04-17T05:22:19.594Z,18.06
2023-04-17T05:24:47.713Z,18.05
2023-04-17T05:27:14.515Z,18.08
2023-04-17T05:29:41.284Z,18.19
2023-04-17T05:32:08.086Z,18.26
2023-04-17T05:34:35.042Z,18.30
2023-04-17T05:37:01.859Z,18.29
2023-04-17T05:39:28.593Z,18.30
2023-04-17T05:41:56.735Z,18.26
2023-04-17T05:44:23.416Z,18.18
2023-04-17T05:46:50.141Z,18.25
2023-04-17T05:49:16.930Z,18.27
2023-04-17T05:51:43.820Z,18.32
2023-04-17T05:54:10.492Z,18.33
2023-04-17T05:56:37.266Z,18.35
2023-04-17T05:59:05.346Z,18.38
2023-04-17T06:01:31.959Z,18.33
2023-04-17T06:03:58.947Z,18.34
2023-04-17T06:06:25.965Z,18.40
2023-04-17T06:08:52.650Z,18.42
2023-04-17T06:11:19.522Z,18.48
2023-04-17T06:13:46.304Z,18.45
2023-04-17T06:16:14.469Z,18.24
2023-04-17T06:18:41.155Z,18.27
2023-04-17T06:21:07.885Z,18.40
2023-04-17T06:23:34.658Z,18.32
2023-04-17T06:26:01.469Z,18.38
2023-04-17T06:28:28.213Z,18.36
2023-04-17T06:30:55.020Z,18.51
2023-04-17T06:33:26.041Z,18.68
2023-04-17T06:35:53.380Z,18.76
2023-04-17T06:38:20.114Z,18.62
2023-04-17T06:40:47.064Z,18.84
2023-04-17T06:43:15.784Z,18.91
2023-04-17T06:45:42.540Z,19.05
2023-04-17T06:48:09.447Z,19.30
2023-04-17T06:50:37.614Z,19.49
2023-04-17T06:53:04.366Z,19.53
2023-04-17T06:55:31.334Z,19.69
2023-04-17T06:57:57.981Z,19.63
2023-04-17T07:00:24.910Z,19.62
2023-04-17T07:02:51.737Z,19.60
2023-04-17T07:05:18.688Z,19.69
2023-04-17T07:07:46.993Z,19.76
2023-04-17T07:10:13.939Z,19.89
2023-04-17T07:12:40.667Z,20.01
2023-04-17T07:15:09.114Z,20.17
2023-04-17T07:17:36.375Z,20.44
2023-04-17T07:20:04.180Z,20.59
2023-04-17T07:22:31.390Z,20.56
2023-04-17T07:24:59.801Z,20.72
2023-04-17T07:27:27.262Z,20.82
2023-04-17T07:29:54.641Z,20.66
2023-04-17T07:33:17.536Z,20.36
2023-04-17T07:35:45.138Z,20.12
2023-04-17T07:38:12.008Z,20.19
2023-04-17T07:40:39.896Z,20.12
2023-04-17T07:43:10.249Z,20.13
2023-04-17T07:45:39.742Z,20.17
2023-04-17T07:48:08.737Z,20.18
2023-04-17T07:50:37.844Z,20.25
2023-04-17T07:53:05.480Z,20.14
2023-04-17T07:55:33.087Z,20.22
2023-04-17T07:58:00.797Z,20.14
2023-04-17T08:00:30.541Z,20.17
2023-04-17T08:02:57.931Z,20.26
2023-04-17T08:05:26.107Z,20.39
2023-04-17T08:07:55.348Z,20.33
2023-04-17T08:10:22.602Z,20.16
2023-04-17T08:12:51.669Z,20.05
2023-04-17T08:15:20.194Z,20.20
2023-04-17T08:17:47.589Z,20.51
2023-04-17T08:20:15.624Z,20.58
2023-04-17T08:22:44.579Z,20.78
2023-04-17T08:25:14.125Z,20.92
2023-04-17T08:27:44.310Z,20.93
2023-04-17T08:30:14.464Z,20.64
2023-04-17T08:32:46.288Z,20.39
2023-04-17T08:35:14.774Z,20.46
2023-04-17T08:37:44.438Z,20.47
2023-04-17T08:40:14.054Z,20.59
2023-04-17T08:42:42.942Z,20.75
2023-04-17T08:45:12.185Z,20.89
2023-04-17T08:47:40.351Z,21.04
2023-04-17T08:50:09.835Z,21.22
2023-04-17T08:52:40.127Z,21.25
2023-04-17T08:55:09.465Z,21.22
2023-04-17T08:57:54.597Z,21.00
2023-04-17T09:00:25.969Z,20.75
2023-04-17T09:02:55.380Z,20.83
2023-04-17T09:05:24.144Z,21.01
2023-04-17T09:08:09.623Z,20.99
2023-04-17T09:10:37.634Z,21.15
2023-04-17T09:13:07.482Z,21.16
2023-04-17T09:15:38.054Z,21.23
2023-04-17T09:18:06.269Z,21.19
2023-04-17T09:20:48.761Z,21.48
2023-04-17T09:23:16.320Z,21.26
2023-04-17T09:25:44.142Z,21.40
2023-04-17T09:28:14.912Z,21.22
2023-04-17T09:30:44.031Z,21.43
2023-04-17T09:33:11.871Z,21.59
2023-04-17T09:35:41.775Z,21.65
2023-04-17T09:38:10.194Z,21.63
2023-04-17T09:40:40.264Z,21.78
2023-04-17T09:43:10.655Z,21.87
2023-04-17T09:45:41.121Z,22.02
2023-04-17T09:48:10.429Z,22.01
2023-04-17T09:50:38.892Z,22.10
2023-04-17T09:53:08.124Z,22.02
2023-04-17T09:55:36.727Z,21.98
2023-04-17T09:58:07.758Z,22.02
2023-04-17T10:00:37.218Z,22.22
2023-04-17T10:03:08.143Z,22.34
2023-04-17T10:05:36.100Z,22.35
2023-04-17T10:08:03.445Z,22.20
2023-04-17T10:10:31.758Z,22.27
2023-04-17T10:13:05.525Z,22.31
2023-04-17T10:15:34.119Z,22.37
2023-04-17T10:18:20.884Z,22.56
2023-04-17T10:20:49.778Z,22.63
2023-04-17T10:23:30.713Z,22.75
2023-04-17T10:26:37.208Z,22.73
2023-04-17T10:29:04.965Z,22.60
2023-04-17T10:32:22.559Z,22.68
2023-04-17T10:34:52.300Z,22.60
2023-04-17T10:37:19.792Z,22.57
2023-04-17T10:39:51.566Z,22.47
2023-04-17T10:42:20.009Z,22.31
2023-04-17T10:44:47.987Z,22.36
2023-04-17T10:47:15.264Z,22.27
2023-04-17T10:49:54.989Z,22.20
2023-04-17T10:52:42.108Z,22.30
2023-04-17T10:55:14.174Z,22.27
2023-04-17T10:57:55.865Z,22.26
2023-04-17T11:00:30.256Z,22.43
2023-04-17T11:02:57.933Z,22.52
2023-04-17T11:05:26.810Z,22.51
2023-04-17T11:07:54.102Z,22.56
2023-04-17T11:10:22.272Z,22.22
2023-04-17T11:12:51.042Z,22.28
2023-04-17T11:15:18.003Z,22.65
2023-04-17T11:17:48.509Z,22.91
2023-04-17T11:20:20.281Z,22.59
2023-04-17T11:22:50.117Z,23.12
2023-04-17T11:25:25.578Z,23.71
2023-04-17T11:27:56.557Z,24.48
2023-04-17T11:30:31.748Z,24.65
2023-04-17T11:32:59.881Z,24.45
2023-04-17T11:35:34.642Z,24.58
2023-04-17T11:38:14.313Z,24.09
2023-04-17T11:40:45.807Z,23.93
2023-04-17T11:43:13.784Z,24.16
2023-04-17T11:45:42.472Z,23.98
2023-04-17T11:48:10.766Z,24.15
2023-04-17T11:50:38.606Z,24.00
2023-04-17T11:53:12.900Z,24.15
2023-04-17T11:55:46.683Z,24.52
2023-04-17T11:58:14.712Z,24.56
2023-04-17T12:00:42.142Z,24.70
2023-04-17T12:03:34.298Z,24.67
2023-04-17T12:06:03.324Z,24.54
2023-04-17T12:08:42.362Z,24.65
2023-04-17T12:11:15.607Z,24.60
2023-04-17T12:13:44.705Z,24.48
2023-04-17T12:16:12.075Z,24.48
2023-04-17T12:18:39.103Z,24.60
2023-04-17T12:21:07.452Z,24.68
2023-04-17T12:23:37.395Z,24.39
2023-04-17T12:26:04.944Z,24.15
2023-04-17T12:28:32.902Z,23.68
2023-04-17T12:31:00.582Z,23.95
2023-04-17T12:33:28.440Z,24.09
2023-04-17T12:35:55.932Z,24.03
2023-04-17T12:38:22.779Z,23.87
2023-04-17T12:40:51.859Z,23.62
2023-04-17T12:43:18.786Z,23.49
2023-04-17T12:45:46.791Z,23.54
2023-04-17T12:48:17.563Z,23.52
2023-04-17T12:50:45.988Z,23.78
2023-04-17T12:53:15.152Z,23.08
2023-04-17T12:55:43.191Z,23.10
2023-04-17T12:58:14.397Z,23.41
2023-04-17T13:00:42.044Z,23.37
2023-04-17T13:03:09.984Z,23.30
2023-04-17T13:05:36.966Z,23.23
2023-04-17T13:08:04.596Z,22.92
2023-04-17T13:10:32.346Z,22.82
2023-04-17T13:12:59.465Z,22.67
2023-04-17T13:15:29.112Z,22.70
2023-04-17T13:17:56.197Z,22.94
2023-04-17T13:20:23.223Z,22.89
2023-04-17T13:22:50.370Z,23.11
2023-04-17T13:25:18.292Z,23.15
2023-04-17T13:27:46.774Z,22.98
2023-04-17T13:30:14.888Z,22.78
2023-04-17T13:32:46.576Z,22.77
2023-04-17T13:35:14.014Z,22.79
2023-04-17T13:37:41.757Z,22.50
2023-04-17T13:40:11.241Z,22.40
2023-04-17T13:42:38.610Z,22.47
2023-04-17T13:45:07.263Z,22.28
2023-04-17T13:47:34.987Z,22.06
2023-04-17T13:50:06.086Z,22.17
2023-04-17T13:52:33.741Z,21.87
2023-04-17T13:55:00.517Z,22.42
2023-04-17T13:57:28.093Z,22.77
2023-04-17T13:59:56.050Z,22.88
2023-04-17T14:02:23.893Z,23.10
2023-04-17T14:04:51.250Z,22.74
2023-04-17T14:07:19.865Z,22.43
2023-04-17T14:09:46.824Z,22.14
2023-04-17T14:12:14.743Z,21.67
2023-04-17T14:14:42.486Z,22.02
2023-04-17T14:17:10.521Z,21.82
2023-04-17T14:19:37.921Z,21.89
2023-04-17T14:22:05.711Z,21.91
2023-04-17T14:24:35.227Z,21.65
2023-04-17T14:27:02.878Z,21.54
2023-04-17T14:29:30.467Z,21.90
2023-04-17T14:31:57.825Z,21.79
2023-04-17T14:34:25.872Z,21.25
2023-04-17T14:36:55.185Z,21.45
2023-04-17T14:39:23.809Z,21.58
2023-04-17T14:41:53.580Z,21.72
2023-04-17T14:44:21.613Z,21.74
2023-04-17T14:46:49.306Z,21.83
2023-04-17T14:49:17.243Z,21.88
2023-04-17T14:51:47.020Z,22.25
2023-04-17T14:54:15.642Z,22.48
2023-04-17T14:56:44.150Z,22.19
2023-04-17T14:59:13.486Z,22.37
2023-04-17T15:01:41.314Z,22.27
2023-04-17T15:04:10.310Z,22.49
2023-04-17T15:06:40.694Z,22.73
2023-04-17T15:09:08.626Z,22.99
2023-04-17T15:11:36.333Z,22.98
2023-04-17T15:14:04.579Z,22.88
2023-04-17T15:16:33.669Z,22.72
2023-04-17T15:19:01.861Z,22.87
2023-04-17T15:21:29.479Z,22.76
2023-04-17T15:23:57.318Z,22.85
2023-04-17T15:26:25.099Z,22.81
2023-04-17T15:28:52.040Z,23.29
2023-04-17T15:31:20.886Z,22.61
2023-04-17T15:33:51.245Z,22.74
2023-04-17T15:36:18.700Z,22.85
2023-04-17T15:38:45.918Z,22.94
2023-04-17T15:41:13.577Z,22.96
2023-04-17T15:43:41.304Z,22.75
2023-04-17T15:46:09.237Z,22.41
2023-04-17T15:48:36.870Z,22.55
2023-04-17T15:51:06.578Z,22.47
2023-04-17T15:53:34.142Z,22.63
2023-04-17T15:56:01.803Z,22.49
2023-04-17T15:58:31.941Z,22.55
2023-04-17T16:00:59.572Z,22.63
2023-04-17T16:03:26.744Z,22.51
2023-04-17T16:05:57.341Z,22.64
2023-04-17T16:08:26.931Z,22.54
2023-04-17T16:10:53.721Z,22.63
2023-04-17T16:13:21.038Z,22.77
2023-04-17T16:15:48.351Z,22.86
2023-04-17T16:18:15.761Z,22.95
2023-04-17T16:20:44.810Z,22.71
2023-04-17T16:23:12.618Z,22.84
2023-04-17T16:25:41.887Z,22.71
2023-04-17T16:28:09.005Z,22.75
2023-04-17T16:30:36.181Z,22.65
2023-04-17T16:33:03.235Z,22.73
2023-04-17T16:35:31.582Z,22.61
2023-04-17T16:37:59.384Z,22.74
2023-04-17T16:40:27.007Z,22.72
2023-04-17T16:42:56.304Z,22.55
2023-04-17T16:45:24.454Z,22.64
2023-04-17T16:47:52.606Z,22.60
2023-04-17T16:50:21.111Z,22.48
2023-04-17T16:52:50.283Z,22.41
2023-04-17T16:55:18.281Z,22.59
2023-04-17T16:57:45.888Z,22.61
2023-04-17T17:00:15.855Z,22.63
2023-04-17T17:02:43.005Z,22.66
2023-04-17T17:05:11.057Z,22.77
2023-04-17T17:07:38.556Z,22.81
2023-04-17T17:10:07.518Z,22.72
2023-04-17T17:12:37.068Z,22.83
2023-04-17T17:15:06.375Z,22.83
2023-04-17T17:17:36.113Z,22.88
2023-04-17T17:20:03.684Z,23.00
2023-04-17T17:22:31.315Z,23.05
2023-04-17T17:25:00.676Z,22.97
2023-04-17T17:27:28.625Z,22.96
2023-04-17T17:29:59.077Z,22.94
2023-04-17T17:32:27.739Z,22.90
2023-04-17T17:35:00.276Z,22.84
2023-04-17T17:37:27.606Z,22.84
2023-04-17T17:39:55.155Z,22.74
2023-04-17T17:42:22.926Z,22.85
2023-04-17T17:44:50.536Z,22.93
2023-04-17T17:47:18.022Z,22.86
2023-04-17T17:49:45.723Z,22.86
2023-04-17T17:52:14.557Z,22.83
2023-04-17T17:54:41.796Z,22.81
2023-04-17T17:57:10.917Z,22.70
2023-04-17T17:59:38.300Z,22.79
2023-04-17T18:02:06.005Z,22.80
2023-04-17T18:04:34.207Z,22.66
2023-04-17T18:07:01.526Z,22.57
2023-04-17T18:09:30.065Z,22.47
2023-04-17T18:11:57.646Z,22.29
2023-04-17T18:14:25.376Z,22.12
2023-04-17T18:16:53.042Z,21.99
2023-04-17T18:19:20.805Z,21.84
2023-04-17T18:21:48.236Z,21.82
2023-04-17T18:24:15.937Z,21.60
2023-04-17T18:26:44.829Z,21.60
2023-04-17T18:29:12.850Z,21.33
2023-04-17T18:31:41.742Z,21.24
2023-04-17T18:34:09.178Z,21.26
2023-04-17T18:36:36.267Z,21.27
2023-04-17T18:39:03.938Z,21.20
2023-04-17T18:41:31.267Z,21.03
2023-04-17T18:44:00.266Z,20.99
2023-04-17T18:46:28.486Z,20.94
2023-04-17T18:48:56.175Z,20.89
2023-04-17T18:51:24.069Z,20.76
2023-04-17T18:53:53.301Z,20.73
2023-04-17T18:56:20.370Z,20.70
2023-04-17T18:58:48.169Z,20.74
2023-04-17T19:01:18.510Z,20.77
2023-04-17T19:03:46.679Z,20.78
2023-04-17T19:06:13.793Z,20.76
2023-04-17T19:08:41.454Z,20.85
2023-04-17T19:11:08.309Z,20.77
2023-04-17T19:13:35.632Z,20.82
2023-04-17T19:16:03.046Z,20.09
2023-04-17T19:18:33.463Z,20.54
2023-04-17T19:21:00.797Z,20.65
2023-04-17T19:23:28.837Z,20.75
2023-04-17T19:25:56.057Z,20.70
2023-04-17T19:28:24.254Z,20.59
2023-04-17T19:30:51.249Z,20.73
2023-04-17T19:33:19.153Z,20.55
2023-04-17T19:35:49.255Z,20.58
2023-04-17T19:38:17.390Z,20.54
2023-04-17T19:40:47.149Z,20.53
2023-04-17T19:43:15.142Z,20.78
2023-04-17T19:45:42.837Z,20.74
2023-04-17T19:48:11.256Z,20.73
2023-04-17T19:50:40.404Z,20.82
2023-04-17T19:53:10.435Z,20.57
2023-04-17T19:55:37.613Z,20.43
2023-04-17T19:58:04.966Z,20.43
2023-04-17T20:00:32.430Z,20.59
2023-04-17T20:03:00.308Z,20.44
2023-04-17T20:05:28.275Z,20.38
2023-04-17T20:07:55.831Z,20.41
2023-04-17T20:10:25.460Z,20.51
2023-04-17T20:12:53.060Z,20.13
2023-04-17T20:15:20.516Z,20.14
2023-04-17T20:17:47.404Z,20.13
2023-04-17T20:20:14.949Z,19.88
2023-04-17T20:22:42.692Z,19.82
2023-04-17T20:25:11.472Z,19.63
2023-04-17T20:27:41.170Z,19.74
2023-04-17T20:30:09.728Z,19.63
2023-04-17T20:32:37.266Z,19.59
2023-04-17T20:35:05.286Z,19.60
2023-04-17T20:37:32.542Z,19.46
2023-04-17T20:40:00.924Z,19.29
2023-04-17T20:42:28.921Z,19.42
2023-04-17T20:44:57.594Z,19.43
2023-04-17T20:47:24.920Z,19.29
2023-04-17T20:49:51.525Z,19.04
2023-04-17T20:52:18.952Z,18.85
2023-04-17T20:54:46.656Z,19.15
2023-04-17T20:57:14.297Z,18.94
2023-04-17T20:59:41.933Z,18.78
2023-04-17T21:02:11.266Z,18.60
2023-04-17T21:04:38.570Z,18.72
2023-04-17T21:07:05.815Z,18.72
2023-04-17T21:09:34.592Z,18.51
2023-04-17T21:12:01.416Z,18.44
2023-04-17T21:14:28.652Z,18.32
2023-04-17T21:16:56.264Z,18.42
2023-04-17T21:19:25.836Z,18.52
2023-04-17T21:21:53.951Z,18.25
2023-04-17T21:24:21.614Z,18.10
2023-04-17T21:26:48.873Z,18.29
2023-04-17T21:29:16.085Z,18.18
2023-04-17T21:31:43.997Z,18.27
2023-04-17T21:34:12.026Z,18.17
2023-04-17T21:36:41.380Z,18.01
2023-04-17T21:39:08.608Z,17.77
2023-04-17T21:41:36.213Z,17.46
2023-04-17T21:44:03.639Z,17.46
2023-04-17T21:46:31.003Z,17.71
2023-04-17T21:48:58.350Z,17.58
2023-04-17T21:51:25.820Z,17.60
2023-04-17T21:53:54.863Z,17.62
2023-04-17T21:56:21.933Z,17.52
2023-04-17T21:58:49.775Z,17.63
2023-04-17T22:01:17.302Z,17.58
2023-04-17T22:03:44.532Z,17.56
2023-04-17T22:06:11.679Z,17.43
2023-04-17T22:08:38.895Z,17.44
2023-04-17T22:11:07.988Z,17.45
2023-04-17T22:13:35.573Z,17.35
2023-04-17T22:16:02.740Z,17.31
2023-04-17T22:18:29.967Z,17.37
2023-04-17T22:20:57.672Z,17.34
2023-04-17T22:23:25.130Z,17.12
2023-04-17T22:25:52.803Z,17.11
2023-04-17T22:28:21.822Z,16.88
2023-04-17T22:30:50.640Z,16.71
2023-04-17T22:33:18.122Z,16.66
2023-04-17T22:35:45.305Z,16.66
2023-04-17T22:38:12.738Z,16.51
2023-04-17T22:40:39.949Z,16.30
2023-04-17T22:43:07.180Z,16.18
2023-04-17T22:45:36.012Z,15.96
2023-04-17T22:48:03.369Z,16.06
2023-04-17T22:50:31.008Z,16.12
2023-04-17T22:52:58.667Z,15.87
2023-04-17T22:55:26.225Z,15.65
2023-04-17T22:57:53.669Z,15.87
2023-04-17T23:00:21.116Z,16.12
2023-04-17T23:02:49.622Z,16.02
2023-04-17T23:05:17.124Z,15.94
2023-04-17T23:07:44.549Z,15.96
2023-04-17T23:10:11.838Z,15.93
2023-04-17T23:12:39.536Z,15.82
2023-04-17T23:15:08.280Z,15.56
2023-04-17T23:17:35.695Z,15.74
2023-04-17T23:20:05.443Z,15.41
2023-04-17T23:22:32.776Z,15.43
2023-04-17T23:25:01.033Z,15.47
2023-04-17T23:27:28.413Z,15.22
2023-04-17T23:29:55.633Z,14.97
2023-04-17T23:32:22.484Z,14.54
2023-04-17T23:34:50.062Z,14.53
2023-04-17T23:37:19.097Z,14.46
2023-04-17T23:39:47.162Z,14.38
2023-04-17T23:42:15.305Z,14.18
2023-04-17T23:44:42.428Z,14.33
2023-04-17T23:47:10.335Z,13.77
2023-04-17T23:49:37.636Z,14.06
2023-04-17T23:52:05.194Z,14.13
2023-04-17T23:54:33.437Z,14.03
2023-04-17T23:57:00.737Z,14.01
2023-04-17T23:59:28.012Z,13.72
